Terminal Aerodrome Forecast
Issued by NWS

Home | Current Version | Previous Version | Text Only | Print | Product List | Glossary On
Versions: 1 2 3 4 5 6 7 8 9 10 11 12 13 14 15 16 17 18 19 20 21 22 23 24 25 26 27 28
000
FTUS46 KMTR 191139
TAFSTS
TAF
KSTS 191139Z 1912/2012 VRB03KT P6SM OVC005
      TEMPO 1912/1916 3SM BR OVC003
     FM191800 16005KT P6SM SCT008
     FM192000 17009KT P6SM SKC
     FM200300 16005KT P6SM FEW015
     FM200500 VRB03KT P6SM OVC007=

USA.gov is the U.S. government's official web portal to all federal, state and local government web resources and services.